sensor_id;sensor_type;location;lat;lon;timestamp;P1;durP1;ratioP1;P2;durP2;ratioP2
47758;SDS011;33520;55.122;35.582;2023-11-19T00:03:19;5.30;;;3.20;;
47758;SDS011;33520;55.122;35.582;2023-11-19T00:08:12;8.60;;;3.13;;
47758;SDS011;33520;55.122;35.582;2023-11-19T00:10:38;5.07;;;3.05;;
47758;SDS011;33520;55.122;35.582;2023-11-19T00:13:04;8.48;;;3.85;;
47758;SDS011;33520;55.122;35.582;2023-11-19T00:15:31;5.32;;;2.70;;
47758;SDS011;33520;55.122;35.582;2023-11-19T00:17:57;6.43;;;3.83;;
47758;SDS011;33520;55.122;35.582;2023-11-19T00:20:23;6.90;;;3.40;;
47758;SDS011;33520;55.122;35.582;2023-11-19T00:22:49;7.40;;;3.28;;
47758;SDS011;33520;55.122;35.582;2023-11-19T00:25:19;6.78;;;4.05;;
47758;SDS011;33520;55.122;35.582;2023-11-19T00:27:50;7.28;;;3.28;;
47758;SDS011;33520;55.122;35.582;2023-11-19T00:30:17;6.25;;;3.58;;
47758;SDS011;33520;55.122;35.582;2023-11-19T00:32:43;5.15;;;3.00;;
47758;SDS011;33520;55.122;35.582;2023-11-19T00:35:11;6.88;;;3.40;;
47758;SDS011;33520;55.122;35.582;2023-11-19T00:37:39;7.90;;;3.42;;
47758;SDS011;33520;55.122;35.582;2023-11-19T00:40:08;6.60;;;3.55;;
47758;SDS011;33520;55.122;35.582;2023-11-19T00:42:36;7.30;;;4.43;;
47758;SDS011;33520;55.122;35.582;2023-11-19T00:45:04;8.77;;;3.47;;
47758;SDS011;33520;55.122;35.582;2023-11-19T00:47:35;8.32;;;3.53;;
47758;SDS011;33520;55.122;35.582;2023-11-19T00:50:02;7.38;;;3.55;;
47758;SDS011;33520;55.122;35.582;2023-11-19T00:52:29;11.98;;;3.88;;
47758;SDS011;33520;55.122;35.582;2023-11-19T00:54:55;8.90;;;4.63;;
47758;SDS011;33520;55.122;35.582;2023-11-19T00:57:22;8.07;;;3.60;;
47758;SDS011;33520;55.122;35.582;2023-11-19T00:59:49;5.53;;;3.45;;
47758;SDS011;33520;55.122;35.582;2023-11-19T01:02:16;9.40;;;3.33;;
47758;SDS011;33520;55.122;35.582;2023-11-19T01:04:42;7.57;;;3.63;;
47758;SDS011;33520;55.122;35.582;2023-11-19T01:07:09;6.45;;;3.75;;
47758;SDS011;33520;55.122;35.582;2023-11-19T01:09:43;8.18;;;3.60;;
47758;SDS011;33520;55.122;35.582;2023-11-19T01:12:10;8.10;;;3.90;;
47758;SDS011;33520;55.122;35.582;2023-11-19T01:14:36;8.82;;;3.88;;
47758;SDS011;33520;55.122;35.582;2023-11-19T01:19:30;7.88;;;3.50;;
47758;SDS011;33520;55.122;35.582;2023-11-19T01:21:56;6.95;;;3.25;;
47758;SDS011;33520;55.122;35.582;2023-11-19T01:24:23;9.07;;;3.42;;
47758;SDS011;33520;55.122;35.582;2023-11-19T01:26:49;6.00;;;3.55;;
47758;SDS011;33520;55.122;35.582;2023-11-19T01:29:15;7.28;;;3.53;;
47758;SDS011;33520;55.122;35.582;2023-11-19T01:31:42;12.68;;;3.53;;
47758;SDS011;33520;55.122;35.582;2023-11-19T01:34:09;10.02;;;4.05;;
47758;SDS011;33520;55.122;35.582;2023-11-19T01:36:37;6.20;;;3.50;;
47758;SDS011;33520;55.122;35.582;2023-11-19T01:39:03;5.60;;;3.40;;
47758;SDS011;33520;55.122;35.582;2023-11-19T01:41:36;9.10;;;4.70;;
47758;SDS011;33520;55.122;35.582;2023-11-19T01:44:07;10.25;;;3.58;;
47758;SDS011;33520;55.122;35.582;2023-11-19T01:46:34;11.70;;;4.47;;
47758;SDS011;33520;55.122;35.582;2023-11-19T01:49:01;7.53;;;4.63;;
47758;SDS011;33520;55.122;35.582;2023-11-19T01:51:28;6.68;;;3.38;;
47758;SDS011;33520;55.122;35.582;2023-11-19T01:53:55;11.77;;;3.80;;
47758;SDS011;33520;55.122;35.582;2023-11-19T01:56:23;6.38;;;3.22;;
47758;SDS011;33520;55.122;35.582;2023-11-19T01:58:51;6.32;;;3.33;;
47758;SDS011;33520;55.122;35.582;2023-11-19T02:03:43;5.88;;;3.03;;
47758;SDS011;33520;55.122;35.582;2023-11-19T02:06:10;9.98;;;4.43;;
47758;SDS011;33520;55.122;35.582;2023-11-19T02:08:36;8.40;;;3.53;;
47758;SDS011;33520;55.122;35.582;2023-11-19T02:11:04;7.35;;;3.80;;
47758;SDS011;33520;55.122;35.582;2023-11-19T02:13:32;5.85;;;3.67;;
47758;SDS011;33520;55.122;35.582;2023-11-19T02:15:59;5.80;;;3.45;;
47758;SDS011;33520;55.122;35.582;2023-11-19T02:18:26;6.93;;;3.60;;
47758;SDS011;33520;55.122;35.582;2023-11-19T02:20:57;6.18;;;4.00;;
47758;SDS011;33520;55.122;35.582;2023-11-19T02:23:28;13.88;;;3.72;;
47758;SDS011;33520;55.122;35.582;2023-11-19T02:28:39;6.43;;;3.90;;
47758;SDS011;33520;55.122;35.582;2023-11-19T02:31:07;9.52;;;4.40;;
47758;SDS011;33520;55.122;35.582;2023-11-19T02:33:37;7.63;;;3.80;;
47758;SDS011;33520;55.122;35.582;2023-11-19T02:36:04;9.40;;;3.78;;
47758;SDS011;33520;55.122;35.582;2023-11-19T02:38:33;4.95;;;3.05;;
47758;SDS011;33520;55.122;35.582;2023-11-19T02:41:02;7.38;;;3.97;;
47758;SDS011;33520;55.122;35.582;2023-11-19T02:43:32;5.15;;;3.30;;
47758;SDS011;33520;55.122;35.582;2023-11-19T02:46:02;8.02;;;3.33;;
47758;SDS011;33520;55.122;35.582;2023-11-19T02:48:35;5.80;;;3.30;;
47758;SDS011;33520;55.122;35.582;2023-11-19T02:51:02;13.25;;;4.07;;
47758;SDS011;33520;55.122;35.582;2023-11-19T02:53:35;8.98;;;3.97;;
47758;SDS011;33520;55.122;35.582;2023-11-19T02:56:03;7.75;;;4.45;;
47758;SDS011;33520;55.122;35.582;2023-11-19T02:58:56;9.27;;;3.20;;
47758;SDS011;33520;55.122;35.582;2023-11-19T03:01:23;5.97;;;3.78;;
47758;SDS011;33520;55.122;35.582;2023-11-19T03:03:56;9.13;;;3.15;;
47758;SDS011;33520;55.122;35.582;2023-11-19T03:06:23;10.40;;;4.32;;
47758;SDS011;33520;55.122;35.582;2023-11-19T03:08:50;6.05;;;3.53;;
47758;SDS011;33520;55.122;35.582;2023-11-19T03:11:17;6.68;;;3.85;;
47758;SDS011;33520;55.122;35.582;2023-11-19T03:16:09;8.18;;;3.47;;
47758;SDS011;33520;55.122;35.582;2023-11-19T03:18:37;11.30;;;4.13;;
47758;SDS011;33520;55.122;35.582;2023-11-19T03:21:07;6.70;;;3.78;;
47758;SDS011;33520;55.122;35.582;2023-11-19T03:23:34;7.00;;;3.10;;
47758;SDS011;33520;55.122;35.582;2023-11-19T03:26:01;6.75;;;3.20;;
47758;SDS011;33520;55.122;35.582;2023-11-19T03:28:31;8.43;;;3.83;;
47758;SDS011;33520;55.122;35.582;2023-11-19T03:30:58;8.38;;;3.55;;
47758;SDS011;33520;55.122;35.582;2023-11-19T03:33:24;7.15;;;3.80;;
47758;SDS011;33520;55.122;35.582;2023-11-19T03:35:53;9.43;;;3.25;;
47758;SDS011;33520;55.122;35.582;2023-11-19T03:38:23;6.13;;;3.30;;
47758;SDS011;33520;55.122;35.582;2023-11-19T03:40:50;12.77;;;4.25;;
47758;SDS011;33520;55.122;35.582;2023-11-19T03:43:17;8.70;;;3.38;;
47758;SDS011;33520;55.122;35.582;2023-11-19T03:45:45;7.60;;;3.55;;
47758;SDS011;33520;55.122;35.582;2023-11-19T03:48:12;8.25;;;4.00;;
47758;SDS011;33520;55.122;35.582;2023-11-19T03:50:38;7.70;;;3.42;;
47758;SDS011;33520;55.122;35.582;2023-11-19T03:53:04;7.53;;;3.38;;
47758;SDS011;33520;55.122;35.582;2023-11-19T03:55:31;6.13;;;3.30;;
47758;SDS011;33520;55.122;35.582;2023-11-19T03:57:59;7.35;;;4.07;;
47758;SDS011;33520;55.122;35.582;2023-11-19T04:00:26;7.13;;;3.47;;
47758;SDS011;33520;55.122;35.582;2023-11-19T04:02:53;9.50;;;3.92;;
47758;SDS011;33520;55.122;35.582;2023-11-19T04:05:19;6.25;;;3.70;;
47758;SDS011;33520;55.122;35.582;2023-11-19T04:07:46;10.50;;;4.53;;
47758;SDS011;33520;55.122;35.582;2023-11-19T04:10:12;8.38;;;4.55;;
47758;SDS011;33520;55.122;35.582;2023-11-19T04:12:40;7.47;;;4.20;;
47758;SDS011;33520;55.122;35.582;2023-11-19T04:15:07;5.35;;;3.42;;
47758;SDS011;33520;55.122;35.582;2023-11-19T04:17:34;8.35;;;3.95;;
47758;SDS011;33520;55.122;35.582;2023-11-19T04:20:01;7.60;;;4.35;;
47758;SDS011;33520;55.122;35.582;2023-11-19T04:22:29;7.50;;;4.10;;
47758;SDS011;33520;55.122;35.582;2023-11-19T04:24:56;7.95;;;4.35;;
47758;SDS011;33520;55.122;35.582;2023-11-19T04:27:22;8.82;;;4.07;;
47758;SDS011;33520;55.122;35.582;2023-11-19T04:29:49;9.38;;;4.07;;
47758;SDS011;33520;55.122;35.582;2023-11-19T04:32:16;9.45;;;3.92;;
47758;SDS011;33520;55.122;35.582;2023-11-19T04:34:42;11.57;;;5.13;;
47758;SDS011;33520;55.122;35.582;2023-11-19T04:37:09;7.50;;;4.00;;
47758;SDS011;33520;55.122;35.582;2023-11-19T04:39:35;8.77;;;4.55;;
47758;SDS011;33520;55.122;35.582;2023-11-19T04:42:02;7.95;;;4.20;;
47758;SDS011;33520;55.122;35.582;2023-11-19T04:44:30;8.48;;;4.03;;
47758;SDS011;33520;55.122;35.582;2023-11-19T04:46:56;8.07;;;4.90;;
47758;SDS011;33520;55.122;35.582;2023-11-19T04:49:23;7.47;;;4.65;;
47758;SDS011;33520;55.122;35.582;2023-11-19T04:54:16;9.50;;;4.25;;
47758;SDS011;33520;55.122;35.582;2023-11-19T04:56:45;8.50;;;4.75;;
47758;SDS011;33520;55.122;35.582;2023-11-19T04:59:12;8.45;;;4.43;;
47758;SDS011;33520;55.122;35.582;2023-11-19T05:01:38;8.38;;;4.75;;
47758;SDS011;33520;55.122;35.582;2023-11-19T05:04:04;7.53;;;4.30;;
47758;SDS011;33520;55.122;35.582;2023-11-19T05:06:32;10.07;;;4.22;;
47758;SDS011;33520;55.122;35.582;2023-11-19T05:08:59;7.80;;;4.53;;
47758;SDS011;33520;55.122;35.582;2023-11-19T05:11:35;11.25;;;4.85;;
47758;SDS011;33520;55.122;35.582;2023-11-19T05:14:03;10.40;;;4.47;;
47758;SDS011;33520;55.122;35.582;2023-11-19T05:16:32;9.90;;;4.95;;
47758;SDS011;33520;55.122;35.582;2023-11-19T05:18:58;11.27;;;5.10;;
47758;SDS011;33520;55.122;35.582;2023-11-19T05:21:25;8.40;;;4.43;;
47758;SDS011;33520;55.122;35.582;2023-11-19T05:23:51;9.38;;;5.15;;
47758;SDS011;33520;55.122;35.582;2023-11-19T05:26:18;9.48;;;4.97;;
47758;SDS011;33520;55.122;35.582;2023-11-19T05:28:45;9.32;;;5.55;;
47758;SDS011;33520;55.122;35.582;2023-11-19T05:31:13;13.65;;;5.65;;
47758;SDS011;33520;55.122;35.582;2023-11-19T05:33:40;10.93;;;5.13;;
47758;SDS011;33520;55.122;35.582;2023-11-19T05:36:06;13.55;;;5.07;;
47758;SDS011;33520;55.122;35.582;2023-11-19T05:38:36;10.77;;;5.43;;
47758;SDS011;33520;55.122;35.582;2023-11-19T05:41:03;11.48;;;5.47;;
47758;SDS011;33520;55.122;35.582;2023-11-19T05:43:30;9.00;;;4.50;;
47758;SDS011;33520;55.122;35.582;2023-11-19T05:45:57;8.68;;;5.50;;
47758;SDS011;33520;55.122;35.582;2023-11-19T05:48:25;11.43;;;5.95;;
47758;SDS011;33520;55.122;35.582;2023-11-19T05:51:02;9.30;;;5.68;;
47758;SDS011;33520;55.122;35.582;2023-11-19T05:53:28;10.93;;;6.35;;
47758;SDS011;33520;55.122;35.582;2023-11-19T05:55:55;11.75;;;5.88;;
47758;SDS011;33520;55.122;35.582;2023-11-19T05:58:25;11.77;;;6.22;;
47758;SDS011;33520;55.122;35.582;2023-11-19T06:00:54;8.43;;;5.25;;
47758;SDS011;33520;55.122;35.582;2023-11-19T06:03:21;8.90;;;5.85;;
47758;SDS011;33520;55.122;35.582;2023-11-19T06:08:14;11.38;;;5.53;;
47758;SDS011;33520;55.122;35.582;2023-11-19T06:10:41;8.00;;;5.22;;
47758;SDS011;33520;55.122;35.582;2023-11-19T06:13:08;10.07;;;5.32;;
47758;SDS011;33520;55.122;35.582;2023-11-19T06:15:37;11.95;;;5.63;;
47758;SDS011;33520;55.122;35.582;2023-11-19T06:18:04;14.55;;;5.70;;
47758;SDS011;33520;55.122;35.582;2023-11-19T06:20:32;10.93;;;5.18;;
47758;SDS011;33520;55.122;35.582;2023-11-19T06:22:59;11.88;;;6.03;;
47758;SDS011;33520;55.122;35.582;2023-11-19T06:25:25;7.82;;;4.88;;
47758;SDS011;33520;55.122;35.582;2023-11-19T06:27:52;11.10;;;5.60;;
47758;SDS011;33520;55.122;35.582;2023-11-19T06:30:18;8.05;;;5.18;;
47758;SDS011;33520;55.122;35.582;2023-11-19T06:32:46;8.40;;;5.20;;
47758;SDS011;33520;55.122;35.582;2023-11-19T06:35:13;15.98;;;8.13;;
47758;SDS011;33520;55.122;35.582;2023-11-19T06:40:06;11.63;;;5.15;;
47758;SDS011;33520;55.122;35.582;2023-11-19T06:42:35;11.55;;;4.88;;
47758;SDS011;33520;55.122;35.582;2023-11-19T06:47:30;7.20;;;4.82;;
47758;SDS011;33520;55.122;35.582;2023-11-19T06:49:56;12.95;;;5.60;;
47758;SDS011;33520;55.122;35.582;2023-11-19T06:52:22;9.68;;;5.55;;
47758;SDS011;33520;55.122;35.582;2023-11-19T06:54:49;7.63;;;5.25;;
47758;SDS011;33520;55.122;35.582;2023-11-19T06:57:16;10.02;;;5.15;;
47758;SDS011;33520;55.122;35.582;2023-11-19T06:59:42;9.85;;;5.07;;
47758;SDS011;33520;55.122;35.582;2023-11-19T07:02:09;9.73;;;5.50;;
47758;SDS011;33520;55.122;35.582;2023-11-19T07:07:01;9.15;;;5.07;;
47758;SDS011;33520;55.122;35.582;2023-11-19T07:09:27;10.25;;;5.55;;
47758;SDS011;33520;55.122;35.582;2023-11-19T07:11:53;10.23;;;4.90;;
47758;SDS011;33520;55.122;35.582;2023-11-19T07:14:20;11.55;;;5.53;;
47758;SDS011;33520;55.122;35.582;2023-11-19T07:16:47;11.00;;;5.90;;
47758;SDS011;33520;55.122;35.582;2023-11-19T07:19:13;10.90;;;6.82;;
47758;SDS011;33520;55.122;35.582;2023-11-19T07:21:42;10.23;;;5.90;;
47758;SDS011;33520;55.122;35.582;2023-11-19T07:24:10;10.07;;;6.05;;
47758;SDS011;33520;55.122;35.582;2023-11-19T07:26:45;9.55;;;5.57;;
47758;SDS011;33520;55.122;35.582;2023-11-19T07:29:13;9.57;;;5.00;;
47758;SDS011;33520;55.122;35.582;2023-11-19T07:31:41;8.48;;;5.30;;
47758;SDS011;33520;55.122;35.582;2023-11-19T07:34:10;10.35;;;5.90;;
47758;SDS011;33520;55.122;35.582;2023-11-19T07:36:37;8.43;;;4.60;;
47758;SDS011;33520;55.122;35.582;2023-11-19T07:39:04;13.40;;;5.80;;
47758;SDS011;33520;55.122;35.582;2023-11-19T07:41:33;7.82;;;5.43;;
47758;SDS011;33520;55.122;35.582;2023-11-19T07:44:00;8.70;;;4.82;;
47758;SDS011;33520;55.122;35.582;2023-11-19T07:46:26;8.07;;;4.30;;
47758;SDS011;33520;55.122;35.582;2023-11-19T07:48:52;7.15;;;4.28;;
47758;SDS011;33520;55.122;35.582;2023-11-19T07:51:19;6.88;;;4.60;;
47758;SDS011;33520;55.122;35.582;2023-11-19T07:53:46;6.40;;;3.92;;
47758;SDS011;33520;55.122;35.582;2023-11-19T07:56:12;8.30;;;5.03;;
47758;SDS011;33520;55.122;35.582;2023-11-19T07:58:39;9.10;;;4.32;;
47758;SDS011;33520;55.122;35.582;2023-11-19T08:01:05;8.98;;;4.95;;
47758;SDS011;33520;55.122;35.582;2023-11-19T08:03:32;6.63;;;4.38;;
47758;SDS011;33520;55.122;35.582;2023-11-19T08:06:01;8.30;;;5.22;;
47758;SDS011;33520;55.122;35.582;2023-11-19T08:08:29;9.15;;;4.85;;
47758;SDS011;33520;55.122;35.582;2023-11-19T08:10:56;6.80;;;4.30;;
47758;SDS011;33520;55.122;35.582;2023-11-19T08:13:26;6.72;;;4.13;;
47758;SDS011;33520;55.122;35.582;2023-11-19T08:15:52;6.28;;;4.18;;
47758;SDS011;33520;55.122;35.582;2023-11-19T08:18:19;8.50;;;5.18;;
47758;SDS011;33520;55.122;35.582;2023-11-19T08:20:46;6.90;;;4.13;;
47758;SDS011;33520;55.122;35.582;2023-11-19T08:23:16;7.60;;;4.35;;
47758;SDS011;33520;55.122;35.582;2023-11-19T08:25:42;8.70;;;4.60;;
47758;SDS011;33520;55.122;35.582;2023-11-19T08:28:10;7.65;;;5.20;;
47758;SDS011;33520;55.122;35.582;2023-11-19T08:30:36;7.30;;;4.18;;
47758;SDS011;33520;55.122;35.582;2023-11-19T08:33:02;5.60;;;3.83;;
47758;SDS011;33520;55.122;35.582;2023-11-19T08:35:28;6.47;;;4.35;;
47758;SDS011;33520;55.122;35.582;2023-11-19T08:37:56;7.85;;;4.55;;
47758;SDS011;33520;55.122;35.582;2023-11-19T08:40:23;8.18;;;4.50;;
47758;SDS011;33520;55.122;35.582;2023-11-19T08:42:49;7.53;;;4.45;;
47758;SDS011;33520;55.122;35.582;2023-11-19T08:45:15;9.30;;;4.78;;
47758;SDS011;33520;55.122;35.582;2023-11-19T08:47:41;7.20;;;4.35;;
47758;SDS011;33520;55.122;35.582;2023-11-19T08:50:07;9.63;;;5.20;;
47758;SDS011;33520;55.122;35.582;2023-11-19T08:52:34;9.25;;;4.97;;
47758;SDS011;33520;55.122;35.582;2023-11-19T08:55:00;8.65;;;4.38;;
47758;SDS011;33520;55.122;35.582;2023-11-19T08:57:27;7.07;;;4.97;;
47758;SDS011;33520;55.122;35.582;2023-11-19T08:59:54;8.02;;;4.32;;
47758;SDS011;33520;55.122;35.582;2023-11-19T09:02:20;7.07;;;4.85;;
47758;SDS011;33520;55.122;35.582;2023-11-19T09:04:47;6.78;;;4.70;;
47758;SDS011;33520;55.122;35.582;2023-11-19T09:07:14;8.80;;;5.40;;
47758;SDS011;33520;55.122;35.582;2023-11-19T09:09:40;9.00;;;4.63;;
47758;SDS011;33520;55.122;35.582;2023-11-19T09:12:06;10.93;;;5.25;;
47758;SDS011;33520;55.122;35.582;2023-11-19T09:14:33;8.20;;;5.35;;
47758;SDS011;33520;55.122;35.582;2023-11-19T09:16:59;9.98;;;5.38;;
47758;SDS011;33520;55.122;35.582;2023-11-19T09:19:26;10.40;;;5.30;;
47758;SDS011;33520;55.122;35.582;2023-11-19T09:21:53;7.82;;;4.93;;
47758;SDS011;33520;55.122;35.582;2023-11-19T09:24:19;11.45;;;5.45;;
47758;SDS011;33520;55.122;35.582;2023-11-19T09:26:45;11.15;;;6.50;;
47758;SDS011;33520;55.122;35.582;2023-11-19T09:29:12;9.98;;;6.22;;
47758;SDS011;33520;55.122;35.582;2023-11-19T09:31:40;14.55;;;6.28;;
47758;SDS011;33520;55.122;35.582;2023-11-19T09:34:06;18.15;;;5.70;;
47758;SDS011;33520;55.122;35.582;2023-11-19T09:36:33;12.18;;;6.88;;
47758;SDS011;33520;55.122;35.582;2023-11-19T09:38:59;11.13;;;7.10;;
47758;SDS011;33520;55.122;35.582;2023-11-19T09:41:27;11.82;;;5.63;;
47758;SDS011;33520;55.122;35.582;2023-11-19T09:43:55;11.02;;;6.70;;
47758;SDS011;33520;55.122;35.582;2023-11-19T09:46:22;8.38;;;5.68;;
47758;SDS011;33520;55.122;35.582;2023-11-19T09:48:51;10.60;;;5.75;;
47758;SDS011;33520;55.122;35.582;2023-11-19T09:51:20;11.57;;;6.68;;
47758;SDS011;33520;55.122;35.582;2023-11-19T09:53:48;10.52;;;5.97;;
47758;SDS011;33520;55.122;35.582;2023-11-19T09:56:15;12.10;;;6.65;;
47758;SDS011;33520;55.122;35.582;2023-11-19T09:58:44;14.75;;;6.85;;
47758;SDS011;33520;55.122;35.582;2023-11-19T10:01:10;12.05;;;7.18;;
47758;SDS011;33520;55.122;35.582;2023-11-19T10:03:38;12.60;;;6.05;;
47758;SDS011;33520;55.122;35.582;2023-11-19T10:06:06;8.57;;;5.43;;
47758;SDS011;33520;55.122;35.582;2023-11-19T10:08:39;8.25;;;4.82;;
47758;SDS011;33520;55.122;35.582;2023-11-19T10:11:06;13.15;;;6.32;;
47758;SDS011;33520;55.122;35.582;2023-11-19T10:13:35;10.55;;;4.85;;
47758;SDS011;33520;55.122;35.582;2023-11-19T10:16:04;8.38;;;4.80;;
47758;SDS011;33520;55.122;35.582;2023-11-19T10:18:34;7.57;;;4.72;;
47758;SDS011;33520;55.122;35.582;2023-11-19T10:21:06;7.43;;;4.68;;
47758;SDS011;33520;55.122;35.582;2023-11-19T10:26:15;7.70;;;4.50;;
47758;SDS011;33520;55.122;35.582;2023-11-19T10:28:41;7.60;;;4.70;;
47758;SDS011;33520;55.122;35.582;2023-11-19T10:31:10;6.85;;;3.85;;
47758;SDS011;33520;55.122;35.582;2023-11-19T10:33:36;6.68;;;3.90;;
47758;SDS011;33520;55.122;35.582;2023-11-19T10:36:02;7.03;;;4.07;;
47758;SDS011;33520;55.122;35.582;2023-11-19T10:38:28;8.35;;;4.70;;
47758;SDS011;33520;55.122;35.582;2023-11-19T10:40:56;8.75;;;4.00;;
47758;SDS011;33520;55.122;35.582;2023-11-19T10:43:22;6.07;;;3.85;;
47758;SDS011;33520;55.122;35.582;2023-11-19T10:45:49;5.32;;;3.28;;
47758;SDS011;33520;55.122;35.582;2023-11-19T10:48:16;5.90;;;3.95;;
47758;SDS011;33520;55.122;35.582;2023-11-19T10:50:43;6.57;;;4.00;;
47758;SDS011;33520;55.122;35.582;2023-11-19T10:53:11;5.97;;;3.58;;
47758;SDS011;33520;55.122;35.582;2023-11-19T10:55:45;7.43;;;3.80;;
47758;SDS011;33520;55.122;35.582;2023-11-19T10:58:15;6.85;;;3.80;;
47758;SDS011;33520;55.122;35.582;2023-11-19T11:00:45;6.88;;;3.80;;
47758;SDS011;33520;55.122;35.582;2023-11-19T11:03:15;7.57;;;4.03;;
47758;SDS011;33520;55.122;35.582;2023-11-19T11:05:49;6.45;;;3.65;;
47758;SDS011;33520;55.122;35.582;2023-11-19T11:08:16;6.25;;;3.95;;
47758;SDS011;33520;55.122;35.582;2023-11-19T11:10:43;8.68;;;4.70;;
47758;SDS011;33520;55.122;35.582;2023-11-19T11:13:11;6.90;;;3.83;;
47758;SDS011;33520;55.122;35.582;2023-11-19T11:15:39;6.38;;;3.95;;
47758;SDS011;33520;55.122;35.582;2023-11-19T11:18:08;6.88;;;3.85;;
47758;SDS011;33520;55.122;35.582;2023-11-19T11:20:35;8.23;;;4.22;;
47758;SDS011;33520;55.122;35.582;2023-11-19T11:36:53;8.38;;;4.25;;
47758;SDS011;33520;55.122;35.582;2023-11-19T11:39:24;7.22;;;4.20;;
47758;SDS011;33520;55.122;35.582;2023-11-19T11:45:02;8.48;;;5.10;;
47758;SDS011;33520;55.122;35.582;2023-11-19T11:55:26;4.78;;;3.67;;
47758;SDS011;33520;55.122;35.582;2023-11-19T11:57:56;6.85;;;3.55;;
47758;SDS011;33520;55.122;35.582;2023-11-19T12:03:01;7.07;;;4.25;;
47758;SDS011;33520;55.122;35.582;2023-11-19T12:05:29;7.68;;;4.70;;
47758;SDS011;33520;55.122;35.582;2023-11-19T12:10:51;7.90;;;3.60;;
47758;SDS011;33520;55.122;35.582;2023-11-19T12:13:18;7.43;;;4.28;;
47758;SDS011;33520;55.122;35.582;2023-11-19T12:18:24;6.55;;;4.10;;
47758;SDS011;33520;55.122;35.582;2023-11-19T12:20:53;8.15;;;4.95;;
47758;SDS011;33520;55.122;35.582;2023-11-19T12:23:23;7.53;;;4.25;;
47758;SDS011;33520;55.122;35.582;2023-11-19T12:25:49;9.57;;;4.18;;
47758;SDS011;33520;55.122;35.582;2023-11-19T12:28:17;7.07;;;4.60;;
47758;SDS011;33520;55.122;35.582;2023-11-19T12:30:44;7.93;;;4.57;;
47758;SDS011;33520;55.122;35.582;2023-11-19T12:33:14;7.95;;;4.60;;
47758;SDS011;33520;55.122;35.582;2023-11-19T12:35:42;8.15;;;4.22;;
47758;SDS011;33520;55.122;35.582;2023-11-19T12:38:33;6.22;;;4.18;;
47758;SDS011;33520;55.122;35.582;2023-11-19T12:41:09;8.02;;;4.38;;
47758;SDS011;33520;55.122;35.582;2023-11-19T12:43:37;7.90;;;4.20;;
47758;SDS011;33520;55.122;35.582;2023-11-19T12:48:49;8.40;;;5.05;;
47758;SDS011;33520;55.122;35.582;2023-11-19T12:51:15;8.85;;;5.20;;
47758;SDS011;33520;55.122;35.582;2023-11-19T12:53:48;9.82;;;5.88;;
47758;SDS011;33520;55.122;35.582;2023-11-19T12:56:16;9.98;;;5.43;;
47758;SDS011;33520;55.122;35.582;2023-11-19T12:58:42;10.77;;;5.57;;
47758;SDS011;33520;55.122;35.582;2023-11-19T13:01:09;7.60;;;5.07;;
47758;SDS011;33520;55.122;35.582;2023-11-19T13:03:38;11.25;;;6.20;;
47758;SDS011;33520;55.122;35.582;2023-11-19T13:06:05;10.07;;;5.90;;
47758;SDS011;33520;55.122;35.582;2023-11-19T13:11:11;12.48;;;6.65;;
47758;SDS011;33520;55.122;35.582;2023-11-19T13:13:57;12.27;;;6.88;;
47758;SDS011;33520;55.122;35.582;2023-11-19T13:16:30;13.93;;;7.40;;
47758;SDS011;33520;55.122;35.582;2023-11-19T13:18:56;11.35;;;6.88;;
47758;SDS011;33520;55.122;35.582;2023-11-19T13:23:49;11.25;;;6.60;;
47758;SDS011;33520;55.122;35.582;2023-11-19T13:26:15;11.95;;;6.38;;
47758;SDS011;33520;55.122;35.582;2023-11-19T13:28:42;13.05;;;6.13;;
47758;SDS011;33520;55.122;35.582;2023-11-19T13:31:08;11.75;;;5.60;;
47758;SDS011;33520;55.122;35.582;2023-11-19T13:33:36;11.90;;;6.00;;
47758;SDS011;33520;55.122;35.582;2023-11-19T13:36:02;11.48;;;5.63;;
47758;SDS011;33520;55.122;35.582;2023-11-19T13:38:32;10.07;;;5.40;;
47758;SDS011;33520;55.122;35.582;2023-11-19T13:40:59;9.80;;;5.47;;
47758;SDS011;33520;55.122;35.582;2023-11-19T13:43:25;8.50;;;5.53;;
47758;SDS011;33520;55.122;35.582;2023-11-19T13:45:56;14.20;;;6.07;;
47758;SDS011;33520;55.122;35.582;2023-11-19T13:48:24;9.50;;;5.88;;
47758;SDS011;33520;55.122;35.582;2023-11-19T13:50:52;9.75;;;5.93;;
47758;SDS011;33520;55.122;35.582;2023-11-19T13:55:44;11.20;;;5.97;;
47758;SDS011;33520;55.122;35.582;2023-11-19T13:58:11;15.07;;;6.97;;
47758;SDS011;33520;55.122;35.582;2023-11-19T14:00:37;11.93;;;7.80;;
47758;SDS011;33520;55.122;35.582;2023-11-19T14:03:03;18.60;;;8.20;;
47758;SDS011;33520;55.122;35.582;2023-11-19T14:07:56;14.20;;;7.13;;
47758;SDS011;33520;55.122;35.582;2023-11-19T14:10:23;16.83;;;7.10;;
47758;SDS011;33520;55.122;35.582;2023-11-19T14:12:49;16.15;;;7.63;;
47758;SDS011;33520;55.122;35.582;2023-11-19T14:15:16;11.15;;;7.13;;
47758;SDS011;33520;55.122;35.582;2023-11-19T14:17:45;16.08;;;9.27;;
47758;SDS011;33520;55.122;35.582;2023-11-19T14:20:11;17.45;;;9.63;;
47758;SDS011;33520;55.122;35.582;2023-11-19T14:22:43;18.42;;;10.45;;
47758;SDS011;33520;55.122;35.582;2023-11-19T14:25:10;15.88;;;9.65;;
47758;SDS011;33520;55.122;35.582;2023-11-19T14:27:37;19.75;;;9.82;;
47758;SDS011;33520;55.122;35.582;2023-11-19T14:30:07;18.55;;;9.80;;
47758;SDS011;33520;55.122;35.582;2023-11-19T14:32:37;18.67;;;8.90;;
47758;SDS011;33520;55.122;35.582;2023-11-19T14:35:04;17.13;;;9.73;;
47758;SDS011;33520;55.122;35.582;2023-11-19T14:37:31;19.73;;;8.98;;
47758;SDS011;33520;55.122;35.582;2023-11-19T14:39:57;16.60;;;9.55;;
47758;SDS011;33520;55.122;35.582;2023-11-19T14:42:24;15.45;;;8.77;;
47758;SDS011;33520;55.122;35.582;2023-11-19T14:47:21;19.30;;;8.82;;
47758;SDS011;33520;55.122;35.582;2023-11-19T14:52:13;15.38;;;8.63;;
47758;SDS011;33520;55.122;35.582;2023-11-19T14:57:06;16.98;;;8.45;;
47758;SDS011;33520;55.122;35.582;2023-11-19T14:59:36;15.55;;;8.88;;
47758;SDS011;33520;55.122;35.582;2023-11-19T15:04:29;17.52;;;7.93;;
47758;SDS011;33520;55.122;35.582;2023-11-19T15:06:58;14.60;;;8.05;;
47758;SDS011;33520;55.122;35.582;2023-11-19T15:09:25;11.82;;;7.35;;
47758;SDS011;33520;55.122;35.582;2023-11-19T15:11:55;17.98;;;7.97;;
47758;SDS011;33520;55.122;35.582;2023-11-19T15:14:23;11.15;;;6.13;;
47758;SDS011;33520;55.122;35.582;2023-11-19T15:16:50;14.75;;;6.80;;
47758;SDS011;33520;55.122;35.582;2023-11-19T15:19:17;10.75;;;5.72;;
47758;SDS011;33520;55.122;35.582;2023-11-19T15:21:43;10.38;;;6.00;;
47758;SDS011;33520;55.122;35.582;2023-11-19T15:24:10;12.50;;;5.35;;
47758;SDS011;33520;55.122;35.582;2023-11-19T15:26:36;11.52;;;6.28;;
47758;SDS011;33520;55.122;35.582;2023-11-19T15:29:04;10.50;;;5.15;;
47758;SDS011;33520;55.122;35.582;2023-11-19T15:31:31;6.75;;;4.05;;
47758;SDS011;33520;55.122;35.582;2023-11-19T15:36:23;10.35;;;5.50;;
47758;SDS011;33520;55.122;35.582;2023-11-19T15:38:49;7.65;;;5.10;;
47758;SDS011;33520;55.122;35.582;2023-11-19T15:41:16;10.77;;;4.90;;
47758;SDS011;33520;55.122;35.582;2023-11-19T15:43:43;7.13;;;4.15;;
47758;SDS011;33520;55.122;35.582;2023-11-19T15:46:09;11.48;;;5.68;;
47758;SDS011;33520;55.122;35.582;2023-11-19T15:48:37;8.70;;;4.80;;
47758;SDS011;33520;55.122;35.582;2023-11-19T15:51:04;7.35;;;3.75;;
47758;SDS011;33520;55.122;35.582;2023-11-19T15:53:30;10.65;;;5.05;;
47758;SDS011;33520;55.122;35.582;2023-11-19T15:58:23;9.75;;;3.80;;
47758;SDS011;33520;55.122;35.582;2023-11-19T16:00:50;8.02;;;4.53;;
47758;SDS011;33520;55.122;35.582;2023-11-19T16:03:16;7.50;;;4.38;;